createdAt,value
2022-10-10T00:01:37.177Z,17.50
2022-10-10T00:04:05.186Z,15.60
2022-10-10T00:06:33.568Z,17.90
2022-10-10T00:09:02.391Z,18.10
2022-10-10T00:11:29.991Z,12.10
2022-10-10T00:13:57.324Z,15.10
2022-10-10T00:16:24.604Z,15.80
2022-10-10T00:18:52.847Z,13.70
2022-10-10T00:21:19.244Z,14.10
2022-10-10T00:23:46.512Z,15.70
2022-10-10T00:26:18.554Z,13.00
2022-10-10T00:28:52.168Z,12.50
2022-10-10T00:31:18.697Z,10.60
2022-10-10T00:33:45.998Z,11.20
2022-10-10T00:36:14.077Z,12.30
2022-10-10T00:38:41.709Z,12.50
2022-10-10T00:41:10.040Z,13.40
2022-10-10T00:43:37.536Z,11.60
2022-10-10T00:46:04.425Z,14.80
2022-10-10T00:48:40.467Z,9.70
2022-10-10T00:51:16.318Z,10.50
2022-10-10T00:54:01.789Z,10.10
2022-10-10T00:56:35.598Z,12.40
2022-10-10T00:59:05.796Z,11.90
2022-10-10T01:01:32.761Z,10.30
2022-10-10T01:04:01.555Z,12.60
2022-10-10T01:06:28.993Z,10.30
2022-10-10T01:08:57.823Z,12.30
2022-10-10T01:11:41.886Z,11.80
2022-10-10T01:14:25.141Z,10.00
2022-10-10T01:17:12.308Z,11.60
2022-10-10T01:20:23.134Z,10.70
2022-10-10T01:23:11.208Z,11.10
2022-10-10T01:26:09.671Z,7.70
2022-10-10T01:29:06.087Z,13.80
2022-10-10T01:31:37.748Z,13.50
2022-10-10T01:34:30.389Z,14.10
2022-10-10T01:37:04.710Z,12.10
2022-10-10T01:39:39.051Z,13.80
2022-10-10T01:42:43.433Z,16.60
2022-10-10T01:45:11.194Z,11.80
2022-10-10T01:47:38.610Z,12.00
2022-10-10T01:50:11.070Z,12.40
2022-10-10T01:53:02.978Z,10.70
2022-10-10T01:55:45.969Z,11.30
2022-10-10T01:58:41.676Z,15.50
2022-10-10T02:01:23.157Z,16.30
2022-10-10T02:03:58.853Z,13.00
2022-10-10T02:06:35.353Z,15.20
2022-10-10T02:09:06.840Z,14.60
2022-10-10T02:11:37.641Z,13.40
2022-10-10T02:14:15.331Z,14.50
2022-10-10T02:16:46.261Z,12.40
2022-10-10T02:19:18.292Z,12.00
2022-10-10T02:21:47.020Z,26.10
2022-10-10T02:24:19.231Z,16.70
2022-10-10T02:26:53.301Z,13.10
2022-10-10T02:31:58.210Z,12.50
2022-10-10T02:34:35.157Z,9.70
2022-10-10T02:37:07.217Z,17.00
2022-10-10T02:39:38.261Z,12.60
2022-10-10T02:42:07.577Z,12.10
2022-10-10T02:44:36.733Z,7.60
2022-10-10T02:47:03.686Z,13.40
2022-10-10T02:49:34.232Z,8.40
2022-10-10T02:52:03.113Z,10.90
2022-10-10T02:54:29.899Z,14.00
2022-10-10T02:56:58.375Z,14.20
2022-10-10T02:59:25.898Z,10.80
2022-10-10T03:01:52.469Z,11.50
2022-10-10T03:04:20.778Z,13.00
2022-10-10T03:06:47.181Z,18.60
2022-10-10T03:09:18.141Z,19.50
2022-10-10T03:11:47.088Z,16.60
2022-10-10T03:14:14.206Z,18.50
2022-10-10T03:16:44.620Z,15.60
2022-10-10T03:19:11.411Z,20.00
2022-10-10T03:21:37.945Z,14.90
2022-10-10T03:24:05.378Z,14.10
2022-10-10T03:26:33.121Z,16.00
2022-10-10T03:29:02.708Z,14.30
2022-10-10T03:31:30.538Z,16.80
2022-10-10T03:33:57.345Z,11.60
2022-10-10T03:36:25.659Z,12.80
2022-10-10T03:38:52.760Z,14.00
2022-10-10T03:41:19.200Z,13.70
2022-10-10T03:43:45.995Z,16.80
2022-10-10T03:46:16.204Z,17.80
2022-10-10T03:48:47.293Z,13.70
2022-10-10T03:51:15.622Z,14.10
2022-10-10T03:53:42.717Z,17.10
2022-10-10T03:56:09.259Z,15.60
2022-10-10T03:58:35.696Z,14.50
2022-10-10T04:01:05.165Z,16.60
2022-10-10T04:03:35.088Z,13.30
2022-10-10T04:06:02.277Z,13.80
2022-10-10T04:08:30.114Z,15.10
2022-10-10T04:10:57.045Z,14.50
2022-10-10T04:13:26.816Z,14.20
2022-10-10T04:15:55.169Z,15.20
2022-10-10T04:18:23.532Z,14.00
2022-10-10T04:20:51.247Z,14.60
2022-10-10T04:23:20.982Z,17.10
2022-10-10T04:25:52.822Z,14.30
2022-10-10T04:28:20.697Z,18.70
2022-10-10T04:30:47.390Z,16.40
2022-10-10T04:33:13.960Z,14.10
2022-10-10T04:35:41.839Z,18.80
2022-10-10T04:38:08.836Z,17.10
2022-10-10T04:40:37.292Z,17.80
2022-10-10T04:43:04.260Z,19.00
2022-10-10T04:45:35.230Z,18.50
2022-10-10T04:48:04.730Z,14.80
2022-10-10T04:50:33.212Z,19.00
2022-10-10T04:52:59.603Z,17.60
2022-10-10T04:55:27.694Z,18.40
2022-10-10T04:58:00.528Z,19.80
2022-10-10T05:00:27.903Z,20.90
2022-10-10T05:02:55.778Z,19.10
2022-10-10T05:05:23.690Z,20.00
2022-10-10T05:07:55.173Z,22.20
2022-10-10T05:10:23.402Z,21.60
2022-10-10T05:12:51.963Z,19.90
2022-10-10T05:15:19.066Z,15.70
2022-10-10T05:17:46.920Z,27.50
2022-10-10T05:20:13.688Z,21.00
2022-10-10T05:22:41.681Z,21.00
2022-10-10T05:25:08.599Z,13.30
2022-10-10T05:27:35.039Z,21.60
2022-10-10T05:30:04.945Z,23.20
2022-10-10T05:32:37.712Z,15.60
2022-10-10T05:35:08.828Z,24.80
2022-10-10T05:37:38.068Z,23.20
2022-10-10T05:40:06.135Z,19.60
2022-10-10T05:42:44.653Z,17.70
2022-10-10T05:45:11.874Z,19.40
2022-10-10T05:47:39.900Z,20.40
2022-10-10T05:50:16.148Z,18.50
2022-10-10T05:52:43.215Z,17.80
2022-10-10T05:55:17.270Z,16.60
2022-10-10T05:57:44.352Z,16.60
2022-10-10T06:00:11.477Z,15.60
2022-10-10T06:02:41.192Z,18.70
2022-10-10T06:05:11.105Z,16.00
2022-10-10T06:08:02.455Z,19.00
2022-10-10T06:10:25.212Z,21.40
2022-10-10T06:12:54.523Z,15.80
2022-10-10T06:15:22.512Z,16.90
2022-10-10T06:17:49.466Z,15.50
2022-10-10T06:20:49.494Z,17.90
2022-10-10T06:23:17.565Z,31.20
2022-10-10T06:25:44.832Z,13.50
2022-10-10T06:28:12.937Z,19.70
2022-10-10T06:30:43.087Z,22.30
2022-10-10T06:33:13.804Z,21.10
2022-10-10T06:35:44.666Z,23.60
2022-10-10T06:38:11.680Z,12.20
2022-10-10T06:40:39.805Z,18.30
2022-10-10T06:43:11.267Z,20.20
2022-10-10T06:45:39.826Z,18.60
2022-10-10T06:48:11.059Z,12.40
2022-10-10T06:50:38.503Z,13.80
2022-10-10T06:53:05.549Z,15.20
2022-10-10T06:55:32.462Z,16.60
2022-10-10T06:57:59.349Z,9.20
2022-10-10T07:00:26.633Z,7.50
2022-10-10T07:02:53.780Z,10.50
2022-10-10T07:05:30.847Z,8.70
2022-10-10T07:07:58.172Z,8.60
2022-10-10T07:10:24.849Z,17.60
2022-10-10T07:12:53.488Z,12.60
2022-10-10T07:15:20.991Z,10.00
2022-10-10T07:17:53.391Z,11.20
2022-10-10T07:20:22.239Z,11.50
2022-10-10T07:22:49.423Z,14.40
2022-10-10T07:25:16.404Z,24.30
2022-10-10T07:27:43.038Z,27.60
2022-10-10T07:30:10.146Z,19.10
2022-10-10T07:32:39.222Z,10.90
2022-10-10T07:35:15.141Z,9.50
2022-10-10T07:38:00.822Z,9.20
2022-10-10T07:40:47.097Z,11.70
2022-10-10T07:43:20.266Z,8.00
2022-10-10T07:45:47.251Z,14.10
2022-10-10T07:48:13.941Z,6.40
2022-10-10T07:50:42.018Z,7.90
2022-10-10T07:53:09.820Z,8.70
2022-10-10T07:55:41.323Z,4.30
2022-10-10T07:58:10.726Z,8.00
2022-10-10T08:00:41.388Z,6.90
2022-10-10T08:03:12.317Z,6.80
2022-10-10T08:05:42.205Z,9.10
2022-10-10T08:08:11.327Z,6.50
2022-10-10T08:10:43.318Z,4.50
2022-10-10T08:13:09.974Z,8.10
2022-10-10T08:15:39.542Z,5.90
2022-10-10T08:18:07.599Z,4.90
2022-10-10T08:20:34.501Z,9.30
2022-10-10T08:23:00.916Z,7.80
2022-10-10T08:25:28.570Z,5.90
2022-10-10T08:27:58.232Z,5.20
2022-10-10T08:30:25.365Z,8.30
2022-10-10T08:32:52.448Z,4.80
2022-10-10T08:35:22.351Z,5.60
2022-10-10T08:37:50.203Z,8.00
2022-10-10T08:40:21.260Z,6.50
2022-10-10T08:42:53.708Z,5.50
2022-10-10T08:45:25.700Z,6.60
2022-10-10T08:48:06.116Z,6.20
2022-10-10T08:50:40.256Z,7.00
2022-10-10T08:53:22.236Z,3.70
2022-10-10T08:55:52.759Z,9.70
2022-10-10T09:01:00.037Z,4.80
2022-10-10T09:03:48.212Z,4.90
2022-10-10T09:06:53.382Z,6.20
2022-10-10T09:10:03.053Z,6.60
2022-10-10T09:12:36.250Z,4.10
2022-10-10T09:15:14.851Z,5.00
2022-10-10T09:18:00.283Z,5.70
2022-10-10T09:21:03.201Z,4.90
2022-10-10T09:23:39.141Z,5.30
2022-10-10T09:26:11.820Z,4.20
2022-10-10T09:28:45.661Z,9.10
2022-10-10T09:31:34.798Z,4.60
2022-10-10T09:34:13.057Z,8.00
2022-10-10T09:36:42.227Z,4.90
2022-10-10T09:39:32.620Z,5.60
2022-10-10T09:42:09.248Z,4.60
2022-10-10T09:44:36.798Z,8.90
2022-10-10T09:47:03.647Z,8.30
2022-10-10T09:49:30.777Z,14.50
2022-10-10T09:52:00.582Z,19.10
2022-10-10T09:54:28.191Z,13.70
2022-10-10T09:56:57.432Z,9.70
2022-10-10T09:59:44.300Z,7.00
2022-10-10T10:02:41.650Z,33.50
2022-10-10T10:05:24.543Z,13.00
2022-10-10T10:07:52.931Z,5.20
2022-10-10T10:10:23.945Z,12.00
2022-10-10T10:12:51.827Z,6.80
2022-10-10T10:15:28.278Z,6.90
2022-10-10T10:18:11.466Z,11.40
2022-10-10T10:20:41.452Z,5.20
2022-10-10T10:23:40.973Z,12.80
2022-10-10T10:26:18.513Z,17.60
2022-10-10T10:28:48.255Z,17.90
2022-10-10T10:31:46.519Z,25.20
2022-10-10T10:34:50.415Z,11.50
2022-10-10T10:37:44.426Z,33.50
2022-10-10T10:40:22.768Z,26.00
2022-10-10T10:43:24.668Z,45.60
2022-10-10T10:46:48.495Z,63.80
2022-10-10T10:49:27.841Z,54.00
2022-10-10T10:52:43.683Z,76.00
2022-10-10T10:55:16.074Z,65.10
2022-10-10T11:01:45.059Z,42.30
2022-10-10T11:05:23.047Z,120.10
2022-10-10T11:08:01.182Z,29.40
2022-10-10T11:10:37.550Z,34.20
2022-10-10T11:13:27.790Z,36.40
2022-10-10T11:16:24.434Z,29.00
2022-10-10T11:19:29.432Z,21.00
2022-10-10T11:22:03.791Z,35.50
2022-10-10T11:24:38.464Z,83.20
2022-10-10T11:27:20.264Z,32.20
2022-10-10T11:30:12.996Z,12.30
2022-10-10T11:33:09.688Z,8.90
2022-10-10T11:35:45.581Z,11.80
2022-10-10T11:38:44.625Z,11.00
2022-10-10T11:41:41.800Z,10.60
2022-10-10T11:44:25.427Z,17.90
2022-10-10T11:49:48.693Z,10.90
2022-10-10T11:52:34.815Z,7.70
2022-10-10T11:55:27.240Z,12.70
2022-10-10T11:58:06.182Z,7.50
2022-10-10T12:00:38.640Z,7.00
2022-10-10T12:03:07.894Z,8.90
2022-10-10T12:05:39.279Z,9.30
2022-10-10T12:08:23.598Z,9.60
2022-10-10T12:10:58.274Z,6.40
2022-10-10T12:13:30.260Z,10.00
2022-10-10T12:16:02.914Z,17.50
2022-10-10T12:18:50.986Z,5.90
2022-10-10T12:21:23.428Z,31.90
2022-10-10T12:24:01.663Z,46.70
2022-10-10T12:26:57.294Z,19.90
2022-10-10T12:29:51.029Z,6.90
2022-10-10T12:32:17.977Z,6.10
2022-10-10T12:34:49.698Z,15.10
2022-10-10T12:37:33.243Z,10.80
2022-10-10T12:40:06.981Z,16.60
2022-10-10T12:42:34.611Z,8.70
2022-10-10T12:45:01.159Z,7.50
2022-10-10T12:48:03.418Z,11.80
2022-10-10T12:50:50.856Z,8.50
2022-10-10T12:53:22.989Z,10.60
2022-10-10T12:55:53.206Z,10.30
2022-10-10T12:58:27.367Z,19.30
2022-10-10T13:01:03.157Z,8.00
2022-10-10T13:03:35.403Z,12.40
2022-10-10T13:06:17.557Z,8.40
2022-10-10T13:08:45.086Z,10.20
2022-10-10T13:11:15.842Z,12.90
2022-10-10T13:13:53.558Z,13.30
2022-10-10T13:16:24.087Z,8.00
2022-10-10T13:18:58.887Z,6.80
2022-10-10T13:21:37.017Z,9.80
2022-10-10T13:24:05.896Z,9.40
2022-10-10T13:26:48.764Z,10.60
2022-10-10T13:29:33.549Z,9.60
2022-10-10T13:32:07.878Z,8.00
2022-10-10T13:34:39.565Z,9.40
2022-10-10T13:37:06.608Z,12.30
2022-10-10T13:39:40.391Z,15.70
2022-10-10T13:42:33.558Z,16.70
2022-10-10T13:45:03.266Z,14.80
2022-10-10T13:47:53.802Z,25.20
2022-10-10T13:50:32.645Z,22.20
2022-10-10T13:53:28.284Z,22.40
2022-10-10T13:56:37.867Z,17.20
2022-10-10T13:59:11.413Z,6.70
2022-10-10T14:04:18.460Z,9.00
2022-10-10T14:07:08.416Z,7.10
2022-10-10T14:10:20.842Z,8.30
2022-10-10T14:12:53.503Z,8.50
2022-10-10T14:15:44.831Z,12.60
2022-10-10T14:18:24.736Z,9.40
2022-10-10T14:20:55.657Z,9.30
2022-10-10T14:23:22.196Z,14.50
2022-10-10T14:25:49.663Z,8.40
2022-10-10T14:28:37.915Z,13.10
2022-10-10T14:31:06.031Z,23.30
2022-10-10T14:33:35.257Z,9.50
2022-10-10T14:36:03.442Z,16.20
2022-10-10T14:38:31.650Z,17.80
2022-10-10T14:41:01.796Z,26.70
2022-10-10T14:43:30.741Z,27.00
2022-10-10T14:45:57.465Z,21.80
2022-10-10T14:48:24.086Z,24.00
2022-10-10T14:50:51.759Z,22.40
2022-10-10T14:53:21.071Z,20.90
2022-10-10T14:55:49.636Z,17.20
2022-10-10T14:58:22.262Z,18.60
2022-10-10T15:00:50.902Z,26.90
2022-10-10T15:03:17.477Z,23.10
2022-10-10T15:05:44.261Z,18.70
2022-10-10T15:08:17.670Z,20.90
2022-10-10T15:10:45.777Z,24.50
2022-10-10T15:13:15.943Z,22.00
2022-10-10T15:15:42.640Z,20.70
2022-10-10T15:18:25.616Z,22.70
2022-10-10T15:20:56.110Z,21.00
2022-10-10T15:23:22.893Z,28.10
2022-10-10T15:25:49.753Z,32.00
2022-10-10T15:28:17.111Z,15.90
2022-10-10T15:30:45.597Z,15.90
2022-10-10T15:33:14.015Z,15.30
2022-10-10T15:36:07.556Z,11.10
2022-10-10T15:38:29.523Z,13.40
2022-10-10T15:41:04.824Z,18.70
2022-10-10T15:43:40.891Z,17.30
2022-10-10T15:46:09.037Z,13.00
2022-10-10T15:48:36.074Z,20.60
2022-10-10T15:51:08.440Z,17.60
2022-10-10T15:53:36.642Z,13.10
2022-10-10T15:56:10.307Z,13.50
2022-10-10T15:58:38.547Z,12.60
2022-10-10T16:01:16.093Z,9.50
2022-10-10T16:03:43.600Z,13.00
2022-10-10T16:06:10.996Z,7.30
2022-10-10T16:08:38.474Z,8.30
2022-10-10T16:11:08.683Z,7.10
2022-10-10T16:13:40.610Z,10.80
2022-10-10T16:16:11.120Z,11.30
2022-10-10T16:18:41.712Z,9.10
2022-10-10T16:21:15.639Z,8.40
2022-10-10T16:26:15.598Z,11.20
2022-10-10T16:28:44.813Z,10.90
2022-10-10T16:31:14.716Z,11.90
2022-10-10T16:33:42.193Z,11.20
2022-10-10T16:36:20.758Z,7.80
2022-10-10T16:38:48.769Z,9.60
2022-10-10T16:41:42.495Z,16.50
2022-10-10T16:44:03.683Z,8.70
2022-10-10T16:46:30.956Z,7.70
2022-10-10T16:48:59.867Z,9.30
2022-10-10T16:51:29.868Z,10.20
2022-10-10T16:54:00.603Z,12.10
2022-10-10T16:56:29.075Z,12.20
2022-10-10T16:58:57.834Z,10.30
2022-10-10T17:01:25.704Z,17.90
2022-10-10T17:03:52.923Z,13.50
2022-10-10T17:06:22.633Z,11.00
2022-10-10T17:08:55.413Z,14.40
2022-10-10T17:11:23.212Z,15.50
2022-10-10T17:13:52.293Z,14.50
2022-10-10T17:19:11.581Z,16.30
2022-10-10T17:21:38.309Z,15.80
2022-10-10T17:24:06.257Z,10.70
2022-10-10T17:26:32.862Z,8.80
2022-10-10T17:28:59.886Z,9.90
2022-10-10T17:31:29.418Z,8.30
2022-10-10T17:33:57.617Z,7.30
2022-10-10T17:36:27.130Z,11.30
2022-10-10T17:39:00.979Z,11.60
2022-10-10T17:41:34.003Z,10.90
2022-10-10T17:44:00.846Z,12.20
2022-10-10T17:46:36.271Z,12.40
2022-10-10T17:49:10.036Z,12.50
2022-10-10T17:51:40.134Z,14.20
2022-10-10T17:54:08.919Z,15.10
2022-10-10T17:56:37.128Z,11.00
2022-10-10T17:59:06.055Z,15.60
2022-10-10T18:01:34.817Z,15.00
2022-10-10T18:04:02.225Z,15.20
2022-10-10T18:06:31.046Z,18.10
2022-10-10T18:08:59.505Z,13.20
2022-10-10T18:11:31.568Z,13.90
2022-10-10T18:14:01.298Z,14.90
2022-10-10T18:16:33.134Z,12.70
2022-10-10T18:19:00.742Z,14.30
2022-10-10T18:21:30.169Z,9.80
2022-10-10T18:23:58.284Z,16.10
2022-10-10T18:26:29.021Z,10.30
2022-10-10T18:29:00.160Z,15.60
2022-10-10T18:31:32.478Z,9.90
2022-10-10T18:34:01.416Z,12.30
2022-10-10T18:36:31.351Z,13.00
2022-10-10T18:39:02.406Z,13.20
2022-10-10T18:41:33.927Z,14.50
2022-10-10T18:44:07.626Z,14.40
2022-10-10T18:46:37.089Z,10.20
2022-10-10T18:49:08.320Z,12.40
2022-10-10T18:51:36.817Z,11.70
2022-10-10T18:54:07.910Z,9.50
2022-10-10T18:56:37.813Z,12.20
2022-10-10T18:59:10.862Z,10.10
2022-10-10T19:01:39.471Z,15.50
2022-10-10T19:04:10.036Z,12.30
2022-10-10T19:07:09.793Z,14.00
2022-10-10T19:09:40.660Z,11.00
2022-10-10T19:12:09.043Z,11.60
2022-10-10T19:14:37.733Z,8.50
2022-10-10T19:17:11.496Z,9.70
2022-10-10T19:19:38.798Z,10.00
2022-10-10T19:22:05.875Z,10.20
2022-10-10T19:24:33.635Z,11.60
2022-10-10T19:27:01.827Z,9.30
2022-10-10T19:29:30.324Z,9.80
2022-10-10T19:31:58.062Z,9.80
2022-10-10T19:34:28.317Z,13.40
2022-10-10T19:36:58.350Z,8.00
2022-10-10T19:39:26.214Z,10.30
2022-10-10T19:41:53.282Z,8.20
2022-10-10T19:44:25.134Z,12.90
2022-10-10T19:46:54.378Z,10.30
2022-10-10T19:49:22.665Z,10.70
2022-10-10T19:51:50.081Z,15.60
2022-10-10T19:54:18.031Z,7.80
2022-10-10T19:56:45.749Z,10.80
2022-10-10T19:59:14.004Z,9.80
2022-10-10T20:01:41.554Z,9.90
2022-10-10T20:04:08.248Z,11.50
2022-10-10T20:06:38.511Z,12.20
2022-10-10T20:09:10.669Z,9.90
2022-10-10T20:11:39.092Z,9.10
2022-10-10T20:14:07.263Z,8.80
2022-10-10T20:16:34.829Z,8.70
2022-10-10T20:19:03.435Z,10.00
2022-10-10T20:21:33.378Z,11.30
2022-10-10T20:24:07.233Z,8.70
2022-10-10T20:26:37.444Z,8.50
2022-10-10T20:29:07.299Z,11.10
2022-10-10T20:31:36.554Z,11.10
2022-10-10T20:34:13.156Z,11.70
2022-10-10T20:36:41.341Z,12.30
2022-10-10T20:39:13.032Z,13.40
2022-10-10T20:41:44.142Z,11.50
2022-10-10T20:44:13.157Z,11.80
2022-10-10T20:46:56.187Z,11.10
2022-10-10T20:49:26.398Z,12.30
2022-10-10T20:51:53.444Z,11.00
2022-10-10T20:54:22.844Z,10.80
2022-10-10T20:56:51.529Z,9.10
2022-10-10T20:59:20.708Z,10.00
2022-10-10T21:01:47.547Z,10.40
2022-10-10T21:04:21.530Z,12.20
2022-10-10T21:06:50.820Z,10.10
2022-10-10T21:09:23.519Z,10.50
2022-10-10T21:11:51.581Z,9.80
2022-10-10T21:14:20.368Z,10.90
2022-10-10T21:16:50.407Z,9.10
2022-10-10T21:19:17.287Z,11.90
2022-10-10T21:21:43.844Z,8.10
2022-10-10T21:24:11.063Z,13.80
2022-10-10T21:26:42.064Z,14.10
2022-10-10T21:29:14.248Z,11.40
2022-10-10T21:31:42.466Z,8.60
2022-10-10T21:34:15.220Z,7.70
2022-10-10T21:36:42.296Z,9.00
2022-10-10T21:39:10.818Z,11.60
2022-10-10T21:41:39.127Z,10.10
2022-10-10T21:44:09.226Z,10.20
2022-10-10T21:46:38.422Z,14.20
2022-10-10T21:49:08.082Z,9.30
2022-10-10T21:51:38.561Z,8.40
2022-10-10T21:54:06.588Z,9.50
2022-10-10T21:56:33.718Z,11.40
2022-10-10T21:59:01.674Z,8.90
2022-10-10T22:01:32.418Z,11.60
2022-10-10T22:03:59.992Z,10.70
2022-10-10T22:06:30.045Z,12.70
2022-10-10T22:08:58.900Z,12.80
2022-10-10T22:11:33.780Z,11.80
2022-10-10T22:14:03.603Z,11.80
2022-10-10T22:16:34.371Z,10.00
2022-10-10T22:19:02.130Z,12.90
2022-10-10T22:21:32.124Z,12.00
2022-10-10T22:24:06.497Z,9.60
2022-10-10T22:26:36.103Z,14.30
2022-10-10T22:29:05.447Z,10.10
2022-10-10T22:31:50.766Z,9.50
2022-10-10T22:34:18.026Z,11.30
2022-10-10T22:36:44.801Z,9.60
2022-10-10T22:39:12.161Z,9.10
2022-10-10T22:41:40.595Z,12.80
2022-10-10T22:44:10.849Z,13.10
2022-10-10T22:46:42.925Z,11.40
2022-10-10T22:51:46.782Z,10.60
2022-10-10T22:54:14.842Z,13.70
2022-10-10T22:56:42.308Z,9.90
2022-10-10T22:59:11.784Z,11.90
2022-10-10T23:01:40.082Z,13.20
2022-10-10T23:04:09.906Z,10.80
2022-10-10T23:06:37.400Z,10.70
2022-10-10T23:09:05.896Z,9.90
2022-10-10T23:11:33.190Z,10.70
2022-10-10T23:14:00.608Z,10.90
2022-10-10T23:16:29.257Z,12.20
2022-10-10T23:18:57.634Z,14.50
2022-10-10T23:21:24.633Z,11.10
2022-10-10T23:23:52.541Z,14.20
2022-10-10T23:26:19.892Z,13.40
2022-10-10T23:28:49.753Z,10.80
2022-10-10T23:31:18.742Z,12.50
2022-10-10T23:33:46.991Z,12.90
2022-10-10T23:36:15.403Z,11.10
2022-10-10T23:38:43.876Z,11.70
2022-10-10T23:41:11.922Z,13.00
2022-10-10T23:43:39.151Z,11.10
2022-10-10T23:46:07.648Z,13.80
2022-10-10T23:48:35.198Z,12.20
2022-10-10T23:51:02.718Z,12.80
2022-10-10T23:53:29.753Z,11.60
2022-10-10T23:55:57.244Z,13.70
2022-10-10T23:58:24.315Z,11.50
